ΕΜΥ, Εθνική Μετεωρολογική Υπηρεσία - Δελτία Καιρού, Προγνώσεις

ΑΕΡΟΝΑΥΤΙΛΙΑ

GREEK AIRPORTS CODES

LGIK 310230Z AUTO 36004KT 320V080 //// // ////// 15/09 Q1008 RE//=

EUROPEAN AIRPORTS CODES

LFPO 310230Z AUTO 03009KT CAVOK 03/00 Q1026 NOSIG=